Weather at Jacksonville International Airport

Public forecast

Using degrees Fahrenheit for public forecast. Weather courtesy of forecast.io.

Current aviation weather report (METAR) for Jacksonville International Airport

Retrieved 2022/01/25 03:56 UTC (29 minutes ago):

KJAX 250356Z 00000KT 10SM BKN200 OVC250 08/03 A3001 RMK AO2 SLP161 T00780033

Aviation forecast (TAF) for Jacksonville International Airport

Retrieved 2022-01-25 00:36 UTC (4 hours ago):

TAF KJAX 242334Z 2500/2524 00000KT P6SM BKN150 OVC250 FM251400 VRB04KT P6SM VCSH SCT040 BKN070 OVC120 FM252100 VRB03KT 6SM -RA SCT020 BKN035 OVC070 PROB30 2521/2524 5SM RA BR BKN020 OVC030